Historique des mesures à Cassis (13260), France
Quotidien Résumé Juin 17, 2017 Unités:  US    Métrique   Métrique/US
« Précédent (Jour)
Suivant (Jour) »
Quotidien Hebdomadaire Mensuel Annuel Période au choix
  Maximum: Minimum: Moyenne:
Température: 32 °F 75 °F 82.9 °F
Point de rosée: 32 °F 54.1 °F 57.7 °F
Humidité: Humidity % 35 % 40 %
Vitesse du vent: WindSpeedKMH mph 0.0 mph 6.2 mph
Rafales: WindSpeedGustKMH mph - -
Vent:- - SSW
Pression: 0 in 29.8 in -
Précipitations: 0 in    
Historical Graphs
 
 
Mesures pour : Juin 17, 2017
Heure Temperature Point de rosée Pression Vent Vitesse du vent Rafales Humidité Pluie (par heure) Conditions
32 °F 32 °F 0 in Calm     Humidity % 0 in SoftwareType W/m2
00:10 80.4 °F 54.7 °F 29.8 in NNW 9.0 mph 9.3 mph 41 % 0 in open2300-1.11 W/m2
01:10 79 °F 54.5 °F 29.8 in NNW 9.7 mph 9.7 mph 43 % 0 in open2300-1.11 W/m2
02:10 76.8 °F 55 °F 29.8 in NW 12.2 mph 13.0 mph 47 % 0 in open2300-1.11 W/m2
03:10 75.7 °F 55.2 °F 29.8 in North 3.5 mph 5.8 mph 49 % 0 in open2300-1.11 W/m2
04:10 75 °F 54.7 °F 29.8 in NNW 5.8 mph 8.2 mph 49 % 0 in open2300-1.11 W/m2
05:10 75.9 °F 54.1 °F 29.8 in WNW 7.2 mph 12.6 mph 47 % 0 in open2300-1.11 W/m2
06:10 76.1 °F 54.3 °F 29.8 in ENE 6.1 mph 8.2 mph 47 % 0 in open2300-1.11 W/m2
07:10 76.8 °F 55 °F 29.8 in Calm   4.0 mph 47 % 0 in open2300-1.11 W/m2
08:10 80.1 °F 56.1 °F 29.8 in North 6.4 mph 8.2 mph 44 % 0 in open2300-1.11 W/m2
09:10 80.4 °F 57 °F 29.8 in NNE 3.2 mph 4.3 mph 45 % 0 in open2300-1.11 W/m2
10:11 85.6 °F 60.6 °F 29.8 in South 6.4 mph 9.3 mph 43 % 0 in open2300-1.11 W/m2
11:10 90.7 °F 62.2 °F 29.8 in SE 7.2 mph 7.2 mph 39 % 0 in open2300-1.11 W/m2
12:10 93.6 °F 63.1 °F 29.8 in SE 2.9 mph 5.8 mph 37 % 0 in open2300-1.11 W/m2
13:10 95 °F 63 °F 29.8 in Calm   8.2 mph 35 % 0 in open2300-1.11 W/m2
14:10 95.5 °F 64 °F 29.8 in SE 7.6 mph 7.6 mph 36 % 0 in open2300-1.11 W/m2
15:10 95.5 °F 64 °F 29.8 in SSE 4.7 mph 6.8 mph 36 % 0 in open2300-1.11 W/m2
16:10 94.8 °F 64.2 °F 29.8 in SSE 3.2 mph 3.2 mph 37 % 0 in open2300-1.11 W/m2
17:10 92.8 °F 63.3 °F 29.8 in SE 5.0 mph 6.1 mph 38 % 0 in open2300-1.11 W/m2
18:10 90.9 °F 62.4 °F 29.8 in SSE 6.4 mph 6.4 mph 39 % 0 in open2300-1.11 W/m2
19:10 90.3 °F 59.5 °F 29.8 in NW 12.6 mph 12.6 mph 36 % 0 in open2300-1.11 W/m2
20:10 89.4 °F 58.6 °F 29.8 in Calm   2.1 mph 36 % 0 in open2300-1.11 W/m2
21:10 86.9 °F 58.3 °F 29.8 in NW 18.0 mph 18.0 mph 38 % 0 in open2300-1.11 W/m2
22:11 83.5 °F 58.6 °F 29.8 in NW 15.1 mph 15.1 mph 43 % 0 in open2300-1.11 W/m2
23:10 82.2 °F 57.9 °F 29.8 in NNW 2.1 mph 2.1 mph 44 % 0 in open2300-1.11 W/m2
Observations météo à CASSIS
WU-History script by Weather Underground - 1 mb